Time;durP1;ratioP1;P1;durP2;ratioP2;P2;SDS_P1;SDS_P2;PMS_P1;PMS_P2;Temp;Humidity;BMP_temperature;BMP_pressure;BME280_temperature;BME280_humidity;BME280_pressure;Samples;Min_cycle;Max_cycle;Signal;HPM_P1;HPM_P2
2022/08/04 00:02:16;;;;;;;4.93;2.88;;;20.20;99.90;;;;;;5074817;28;20048;-55
2022/08/04 00:04:59;;;;;;;3.00;2.72;;;20.20;99.90;;;;;;5075129;28;20044;-54
2022/08/04 00:07:59;;;;;;;3.20;2.47;;;20.20;99.90;;;;;;5075097;28;20048;-55
2022/08/04 00:10:27;;;;;;;2.75;2.55;;;20.20;99.90;;;;;;5053766;28;20067;-53
2022/08/04 00:12:57;;;;;;;4.15;2.70;;;20.20;99.90;;;;;;5094676;28;20931;-55
2022/08/04 00:15:25;;;;;;;3.30;3.00;;;20.20;99.90;;;;;;5075708;28;20048;-53
2022/08/04 00:18:08;;;;;;;6.50;3.08;;;20.20;99.90;;;;;;5074567;28;20355;-54
2022/08/04 00:20:39;;;;;;;3.75;3.40;;;20.20;99.90;;;;;;5075017;28;20093;-54
2022/08/04 00:23:08;;;;;;;9.02;2.53;;;20.20;99.90;;;;;;5074831;28;20499;-55
2022/08/04 00:25:43;;;;;;;2.90;2.60;;;20.20;99.90;;;;;;5074367;28;20534;-55
2022/08/04 00:28:11;;;;;;;4.28;3.08;;;20.20;99.90;;;;;;5075303;28;20066;-54
2022/08/04 00:30:40;;;;;;;3.33;2.92;;;20.20;99.90;;;;;;5077804;28;20452;-53
2022/08/04 00:33:07;;;;;;;3.05;2.75;;;20.20;99.90;;;;;;5094807;28;20124;-55
2022/08/04 00:35:35;;;;;;;7.45;2.58;;;20.20;99.90;;;;;;5095031;28;20727;-52
2022/08/04 00:38:02;;;;;;;2.78;2.55;;;20.20;99.90;;;;;;5094768;28;20546;-53
2022/08/04 00:40:47;;;;;;;2.78;2.50;;;20.20;99.90;;;;;;5094295;28;20039;-54
2022/08/04 00:43:23;;;;;;;3.67;2.50;;;20.10;99.90;;;;;;5076647;28;20051;-54
2022/08/04 00:45:59;;;;;;;3.10;2.20;;;20.10;99.90;;;;;;5076807;28;20112;-55
2022/08/04 00:48:55;;;;;;;2.85;2.22;;;20.00;99.90;;;;;;5095302;28;20045;-54
2022/08/04 00:51:45;;;;;;;3.05;2.78;;;19.90;99.90;;;;;;5094878;28;20050;-54
2022/08/04 00:54:30;;;;;;;3.28;2.90;;;19.90;99.90;;;;;;5094437;28;20039;-54
2022/08/04 00:57:15;;;;;;;2.88;2.65;;;19.80;99.90;;;;;;5095156;28;20074;-54
2022/08/04 01:00:12;;;;;;;2.92;2.35;;;19.80;99.90;;;;;;5095008;28;20108;-57
2022/08/04 01:02:58;;;;;;;4.10;2.80;;;19.70;99.90;;;;;;5094606;28;20048;-54
2022/08/04 01:06:02;;;;;;;3.33;3.00;;;19.70;99.90;;;;;;5095029;28;20043;-54
2022/08/04 01:08:43;;;;;;;3.17;2.72;;;19.60;99.90;;;;;;5094860;28;20647;-55
2022/08/04 01:11:32;;;;;;;4.55;3.15;;;19.60;99.90;;;;;;5075999;28;20551;-55
2022/08/04 01:14:33;;;;;;;;;;;19.60;99.90;;;;;;5094853;28;20213;-53
2022/08/04 01:17:18;;;;;;;3.38;3.08;;;19.60;99.90;;;;;;5076562;28;19923;-55
2022/08/04 01:19:47;;;;;;;3.10;2.80;;;19.60;99.90;;;;;;5094463;28;20116;-53
2022/08/04 01:22:28;;;;;;;3.00;2.40;;;19.60;99.90;;;;;;5095179;28;20648;-55
2022/08/04 01:25:20;;;;;;;3.38;2.72;;;19.60;99.90;;;;;;5094206;28;20043;-55
2022/08/04 01:28:23;;;;;;;3.38;2.67;;;19.60;99.90;;;;;;5095424;28;20044;-55
2022/08/04 01:31:01;;;;;;;3.28;2.97;;;19.50;99.90;;;;;;5076790;28;20044;-54
2022/08/04 01:33:31;;;;;;;5.25;3.20;;;19.50;99.90;;;;;;5074839;28;20044;-55
2022/08/04 01:36:22;;;;;;;4.45;3.50;;;19.50;99.90;;;;;;5084955;28;20036;-54
2022/08/04 01:38:52;;;;;;;3.33;2.47;;;19.50;99.90;;;;;;5094547;28;20051;-54
2022/08/04 01:41:19;;;;;;;3.72;2.83;;;19.50;99.90;;;;;;5094986;28;20512;-54
2022/08/04 01:44:01;;;;;;;3.88;3.13;;;19.50;99.90;;;;;;5094308;28;20043;-52
2022/08/04 01:46:34;;;;;;;2.80;2.50;;;19.40;99.90;;;;;;5076963;28;20805;-52
2022/08/04 01:49:01;;;;;;;5.18;2.85;;;19.40;99.90;;;;;;5094332;28;20129;-54
2022/08/04 01:51:34;;;;;;;2.85;2.20;;;19.40;99.90;;;;;;5093948;28;20116;-54
2022/08/04 01:54:01;;;;;;;2.80;2.60;;;19.50;99.90;;;;;;5093801;28;20120;-53
2022/08/04 01:56:30;;;;;;;3.55;2.92;;;19.40;99.90;;;;;;5094688;28;20039;-54
2022/08/04 01:58:58;;;;;;;2.72;2.53;;;19.30;99.90;;;;;;5094541;28;20093;-54
2022/08/04 02:01:25;;;;;;;3.40;3.10;;;19.30;99.90;;;;;;5093569;28;20054;-54
2022/08/04 02:03:52;;;;;;;2.72;2.53;;;19.30;99.90;;;;;;5075676;28;20104;-53
2022/08/04 02:07:16;;;;;;;3.47;2.72;;;19.20;99.90;;;;;;5094376;28;20809;-54
2022/08/04 02:10:01;;;;;;;5.45;3.08;;;19.20;99.90;;;;;;5094261;28;20051;-52
2022/08/04 02:12:49;;;;;;;3.25;2.65;;;19.10;99.90;;;;;;5093666;28;20093;-54
2022/08/04 02:15:29;;;;;;;3.15;2.63;;;19.10;99.90;;;;;;5075629;28;20662;-55
2022/08/04 02:17:59;;;;;;;4.88;2.88;;;19.10;99.90;;;;;;5094123;28;20047;-54
2022/08/04 02:20:34;;;;;;;3.25;2.65;;;19.00;99.90;;;;;;5094667;28;20075;-55
2022/08/04 02:23:05;;;;;;;3.30;2.70;;;19.00;99.90;;;;;;5093752;28;20128;-55
2022/08/04 02:25:38;;;;;;;3.67;2.80;;;19.00;99.90;;;;;;5098129;28;20425;-55
2022/08/04 02:28:14;;;;;;;3.17;2.88;;;19.00;99.90;;;;;;5097338;28;20035;-52
2022/08/04 02:31:14;;;;;;;3.40;2.70;;;19.00;99.90;;;;;;5091547;28;20036;-54
2022/08/04 02:33:43;;;;;;;3.58;2.88;;;19.00;99.90;;;;;;5076055;28;20126;-54
2022/08/04 02:36:20;;;;;;;3.38;3.08;;;19.00;99.90;;;;;;5087416;28;20043;-54
2022/08/04 02:38:59;;;;;;;3.35;3.00;;;18.90;99.90;;;;;;5076960;28;20040;-54
2022/08/04 02:41:29;;;;;;;5.05;2.83;;;18.90;99.90;;;;;;5077253;28;20531;-54
2022/08/04 02:43:59;;;;;;;3.72;2.88;;;18.90;99.90;;;;;;5076881;28;20064;-54
2022/08/04 02:46:27;;;;;;;3.28;2.97;;;18.90;99.90;;;;;;5059429;28;20450;-54
2022/08/04 02:48:55;;;;;;;5.13;2.85;;;18.90;99.90;;;;;;5077325;28;20433;-54
2022/08/04 02:51:32;;;;;;;3.97;2.55;;;18.90;99.90;;;;;;5041980;28;20079;-54
2022/08/04 02:54:01;;;;;;;4.60;2.70;;;18.90;99.90;;;;;;5067418;28;20050;-52
2022/08/04 02:56:30;;;;;;;4.15;2.65;;;18.90;99.90;;;;;;5097135;28;20040;-55
2022/08/04 02:59:04;;;;;;;5.82;2.75;;;18.90;99.90;;;;;;5097321;28;20047;-54
2022/08/04 03:01:32;;;;;;;4.35;3.00;;;18.90;99.90;;;;;;5096139;28;20397;-54
2022/08/04 03:04:20;;;;;;;3.33;2.95;;;18.90;99.90;;;;;;5078902;28;20044;-54
2022/08/04 03:07:05;;;;;;;5.05;2.80;;;18.90;99.90;;;;;;5076801;28;20048;-55
2022/08/04 03:10:06;;;;;;;2.80;2.60;;;18.90;99.90;;;;;;5081688;28;20509;-55
2022/08/04 03:12:51;;;;;;;2.85;2.63;;;18.90;99.90;;;;;;5083163;28;20059;-52
2022/08/04 03:16:02;;;;;;;3.60;2.85;;;18.90;99.90;;;;;;5076902;28;20051;-53
2022/08/04 03:18:47;;;;;;;7.20;3.42;;;18.90;99.90;;;;;;5076141;28;20063;-55
2022/08/04 03:21:29;;;;;;;3.50;3.15;;;18.90;99.90;;;;;;5076608;28;20561;-55
2022/08/04 03:24:05;;;;;;;3.30;3.00;;;18.80;99.90;;;;;;5066357;28;20055;-53
2022/08/04 03:26:51;;;;;;;4.28;3.00;;;18.80;99.90;;;;;;5078990;28;20036;-53
2022/08/04 03:29:55;;;;;;;3.63;3.33;;;18.80;99.90;;;;;;5096354;28;20051;-53
2022/08/04 03:32:44;;;;;;;3.55;3.22;;;18.70;99.90;;;;;;5083966;28;20085;-53
2022/08/04 03:35:40;;;;;;;5.05;3.70;;;18.70;99.90;;;;;;5077282;28;20044;-52
2022/08/04 03:38:10;;;;;;;8.30;3.42;;;18.70;99.90;;;;;;5077987;28;20728;-55
2022/08/04 03:41:02;;;;;;;7.93;4.05;;;18.70;99.90;;;;;;5095794;28;20043;-54
2022/08/04 03:43:55;;;;;;;7.75;2.70;;;18.70;99.90;;;;;;5096916;28;20651;-54
2022/08/04 03:46:40;;;;;;;3.95;3.10;;;18.70;99.90;;;;;;5096241;28;20044;-53
2022/08/04 03:49:24;;;;;;;4.03;3.15;;;18.70;99.90;;;;;;5096597;28;20559;-55
2022/08/04 03:55:50;;;;;;;4.65;3.00;;;18.60;99.90;;;;;;5096001;28;20047;-54
2022/08/04 03:58:32;;;;;;;3.40;3.10;;;18.60;99.90;;;;;;5095530;28;20041;-54
2022/08/04 04:01:15;;;;;;;4.68;3.33;;;18.70;99.90;;;;;;5077293;28;20044;-55
2022/08/04 04:03:58;;;;;;;4.30;3.15;;;18.70;99.90;;;;;;5095594;28;20838;-54
2022/08/04 04:06:28;;;;;;;6.40;2.90;;;18.70;99.90;;;;;;5077747;28;20490;-53
2022/08/04 04:09:16;;;;;;;4.80;3.20;;;18.70;99.90;;;;;;5095774;28;20054;-52
2022/08/04 04:11:46;;;;;;;3.10;2.90;;;18.70;99.90;;;;;;5081538;28;20126;-50
2022/08/04 04:14:47;;;;;;;7.53;3.67;;;18.60;99.90;;;;;;5095173;28;20511;-50
2022/08/04 04:17:34;;;;;;;4.38;3.33;;;18.70;99.90;;;;;;5096179;28;20054;-49
2022/08/04 04:20:04;;;;;;;3.13;2.80;;;18.70;99.90;;;;;;5077067;28;20447;-50
2022/08/04 04:22:56;;;;;;;3.20;2.90;;;18.70;99.90;;;;;;5095536;28;20505;-52
2022/08/04 04:25:43;;;;;;;3.97;3.50;;;18.70;99.90;;;;;;5076277;28;20071;-49
2022/08/04 04:28:34;;;;;;;3.25;2.95;;;18.70;99.90;;;;;;5095810;28;20035;-50
2022/08/04 04:31:40;;;;;;;3.70;3.20;;;18.70;99.90;;;;;;5094786;28;20047;-50
2022/08/04 04:34:19;;;;;;;5.28;3.38;;;18.80;99.90;;;;;;5071790;28;20066;-48
2022/08/04 04:36:46;;;;;;;3.63;3.30;;;18.80;99.90;;;;;;5071193;28;20056;-51
2022/08/04 04:39:16;;;;;;;4.78;3.20;;;18.80;99.90;;;;;;5094794;28;20042;-49
2022/08/04 04:42:00;;;;;;;9.23;3.65;;;18.90;99.90;;;;;;5095494;28;20058;-50
2022/08/04 04:45:04;;;;;;;4.72;3.45;;;19.00;99.90;;;;;;5094986;28;20049;-52
2022/08/04 04:48:07;;;;;;;8.52;3.50;;;19.10;99.90;;;;;;5078697;28;20127;-50
2022/08/04 04:51:02;;;;;;;4.10;3.33;;;19.20;99.90;;;;;;5095285;28;20043;-50
2022/08/04 04:53:41;;;;;;;3.83;2.60;;;19.20;99.90;;;;;;5094098;28;20168;-49
2022/08/04 04:56:16;;;;;;;4.35;3.35;;;19.30;99.90;;;;;;5095120;28;20043;-49
2022/08/04 04:58:43;;;;;;;5.07;3.67;;;19.40;99.90;;;;;;5093337;28;20156;-48
2022/08/04 05:01:36;;;;;;;7.55;3.13;;;19.40;99.90;;;;;;5095215;28;20050;-48
2022/08/04 05:04:18;;;;;;;3.70;3.38;;;19.50;99.90;;;;;;5075531;28;20044;-50
2022/08/04 05:07:22;;;;;;;4.28;3.20;;;19.50;99.90;;;;;;5094349;28;20067;-47
2022/08/04 05:10:05;;;;;;;5.15;3.58;;;19.60;99.90;;;;;;5094831;28;20100;-48
2022/08/04 05:12:59;;;;;;;5.75;3.47;;;19.70;99.90;;;;;;5094411;28;20401;-47
2022/08/04 05:15:51;;;;;;;7.15;3.38;;;19.80;99.90;;;;;;5073978;28;20151;-50
2022/08/04 05:18:26;;;;;;;3.53;3.22;;;19.80;99.90;;;;;;5056726;28;20151;-52
2022/08/04 05:21:16;;;;;;;3.97;3.40;;;19.90;99.90;;;;;;5055846;28;20044;-49
2022/08/04 05:23:47;;;;;;;4.55;3.75;;;20.00;99.90;;;;;;5072993;28;20067;-52
2022/08/04 05:26:17;;;;;;;3.95;3.40;;;20.10;99.90;;;;;;5092088;28;20047;-52
2022/08/04 05:28:52;;;;;;;7.20;3.22;;;20.10;99.90;;;;;;5076209;28;20743;-51
2022/08/04 05:31:36;;;;;;;3.53;3.22;;;20.20;99.90;;;;;;5074816;28;20052;-59
2022/08/04 05:34:14;;;;;;;5.30;3.15;;;20.40;99.90;;;;;;5084575;28;20058;-60
2022/08/04 05:36:46;;;;;;;4.03;3.63;;;20.40;99.90;;;;;;5066896;28;20122;-59
2022/08/04 05:39:23;;;;;;;4.28;3.30;;;20.50;99.90;;;;;;5094872;28;20048;-58
2022/08/04 05:41:50;;;;;;;4.05;3.30;;;20.60;99.90;;;;;;5093573;28;20889;-57
2022/08/04 05:44:25;;;;;;;3.33;2.95;;;20.70;99.90;;;;;;5094723;28;20036;-60
2022/08/04 05:46:55;;;;;;;7.18;3.13;;;20.80;99.90;;;;;;5093456;28;20042;-59
2022/08/04 05:49:24;;;;;;;3.75;2.65;;;20.90;99.90;;;;;;5094172;28;20044;-59
2022/08/04 05:51:53;;;;;;;7.70;3.65;;;20.90;99.90;;;;;;5094330;28;20055;-60
2022/08/04 05:54:21;;;;;;;4.72;3.70;;;21.00;99.90;;;;;;5093915;28;20040;-61
2022/08/04 05:56:49;;;;;;;7.75;3.40;;;21.10;99.90;;;;;;5094658;28;20073;-60
2022/08/04 05:59:19;;;;;;;6.72;3.55;;;21.20;99.90;;;;;;5096868;28;20097;-59
2022/08/04 06:01:47;;;;;;;3.63;3.33;;;21.30;99.90;;;;;;5097693;28;20040;-60
2022/08/04 06:04:31;;;;;;;5.55;3.60;;;21.40;99.90;;;;;;5097494;28;20043;-58
2022/08/04 06:06:58;;;;;;;3.83;3.42;;;21.50;99.90;;;;;;5080377;28;20413;-59
2022/08/04 06:09:25;;;;;;;4.35;3.15;;;21.60;99.90;;;;;;5098170;28;20040;-60
2022/08/04 06:11:55;;;;;;;4.25;3.53;;;21.60;99.90;;;;;;5096531;28;20047;-59
2022/08/04 06:14:42;;;;;;;4.95;2.97;;;21.70;99.90;;;;;;5096659;28;20047;-60
2022/08/04 06:17:13;;;;;;;4.45;3.40;;;21.80;99.90;;;;;;5078056;28;20043;-59
2022/08/04 06:20:02;;;;;;;4.00;3.60;;;21.90;99.90;;;;;;5081701;28;20048;-59
2022/08/04 06:22:54;;;;;;;4.55;3.50;;;22.00;99.90;;;;;;5075481;28;20244;-60
2022/08/04 06:25:28;;;;;;;3.72;3.15;;;22.10;99.90;;;;;;5079024;28;20128;-61
2022/08/04 06:27:56;;;;;;;3.38;3.08;;;22.20;99.90;;;;;;5079550;28;20043;-61
2022/08/04 06:30:25;;;;;;;10.30;3.50;;;22.30;99.90;;;;;;5097712;28;20047;-61
2022/08/04 06:32:55;;;;;;;3.33;2.95;;;22.40;99.90;;;;;;5078870;28;20044;-61
2022/08/04 06:35:31;;;;;;;4.88;3.88;;;22.40;99.90;;;;;;5086152;28;20046;-61
2022/08/04 06:37:59;;;;;;;4.47;3.38;;;22.60;99.90;;;;;;5073512;28;20039;-60
2022/08/04 06:40:28;;;;;;;4.65;3.17;;;22.60;99.90;;;;;;5079930;28;20043;-60
2022/08/04 06:43:01;;;;;;;3.50;3.20;;;22.70;99.90;;;;;;5079325;28;20043;-62
2022/08/04 06:45:29;;;;;;;4.97;3.15;;;22.80;99.90;;;;;;5097518;28;20044;-60
2022/08/04 06:47:57;;;;;;;12.68;3.55;;;22.90;99.90;;;;;;5097751;28;20032;-59
2022/08/04 06:50:24;;;;;;;6.20;4.43;;;23.10;99.90;;;;;;5078362;28;20120;-59
2022/08/04 06:53:12;;;;;;;;;;;23.20;99.90;;;;;;5097881;28;20143;-59
2022/08/04 06:55:42;;;;;;;4.10;3.70;;;23.30;99.90;;;;;;5096896;28;19927;-60
2022/08/04 06:58:10;;;;;;;6.43;3.45;;;23.40;99.90;;;;;;5097261;28;20047;-62
2022/08/04 07:00:38;;;;;;;3.95;3.40;;;23.50;99.90;;;;;;5077694;28;20096;-59
2022/08/04 07:03:06;;;;;;;3.75;3.28;;;23.60;99.90;;;;;;5096980;28;20719;-60
2022/08/04 07:05:34;;;;;;;4.20;3.67;;;23.70;99.90;;;;;;5096764;28;20043;-61
2022/08/04 07:08:02;;;;;;;4.60;2.95;;;23.80;99.90;;;;;;5097160;28;20043;-61
2022/08/04 07:10:30;;;;;;;5.68;4.00;;;23.90;99.90;;;;;;5096047;28;20076;-59
2022/08/04 07:12:59;;;;;;;3.28;2.95;;;24.00;99.90;;;;;;5078043;28;20465;-59
2022/08/04 07:15:27;;;;;;;6.00;3.70;;;24.20;99.90;;;;;;5097399;28;20039;-59
2022/08/04 07:18:03;;;;;;;5.95;4.22;;;24.30;99.90;;;;;;5096842;28;20047;-61
2022/08/04 07:20:32;;;;;;;4.70;3.08;;;24.50;99.90;;;;;;5095800;28;20112;-59
2022/08/04 07:23:06;;;;;;;7.03;3.95;;;24.60;99.90;;;;;;5096504;28;20043;-60
2022/08/04 07:25:35;;;;;;;10.05;3.88;;;24.80;99.90;;;;;;5078221;28;20044;-60
2022/08/04 07:28:27;;;;;;;8.75;3.25;;;25.00;99.90;;;;;;5081529;28;20417;-60
2022/08/04 07:30:56;;;;;;;7.95;3.15;;;25.20;99.90;;;;;;5078328;28;20565;-61
2022/08/04 07:33:24;;;;;;;4.53;3.17;;;25.30;99.90;;;;;;5077803;28;20046;-60
2022/08/04 07:35:55;;;;;;;4.80;3.33;;;25.50;97.60;;;;;;5088621;28;20042;-59
2022/08/04 07:38:38;;;;;;;3.55;3.22;;;25.60;99.40;;;;;;5009225;28;20127;-61
2022/08/04 07:41:23;;;;;;;4.30;2.95;;;25.80;99.90;;;;;;5016324;28;20458;-59
2022/08/04 07:44:07;;;;;;;4.90;3.50;;;26.00;99.10;;;;;;5000457;28;20576;-58
2022/08/04 07:46:35;;;;;;;4.85;3.30;;;26.20;97.20;;;;;;5014487;28;20107;-60
2022/08/04 07:49:02;;;;;;;4.15;3.25;;;26.30;96.30;;;;;;5016027;28;20041;-58
2022/08/04 07:51:30;;;;;;;4.05;3.10;;;26.50;95.80;;;;;;5015053;28;20049;-59
2022/08/04 07:53:59;;;;;;;4.10;3.33;;;26.60;95.30;;;;;;5024640;28;20041;-60
2022/08/04 07:56:26;;;;;;;3.13;2.80;;;26.70;99.40;;;;;;5033808;28;20517;-61
2022/08/04 07:58:54;;;;;;;2.95;2.60;;;26.90;99.90;;;;;;5035572;28;20045;-60
2022/08/04 08:01:22;;;;;;;3.60;2.53;;;27.00;97.50;;;;;;5034938;28;20055;-61
2022/08/04 08:03:51;;;;;;;11.18;3.17;;;27.20;93.10;;;;;;5035142;28;20059;-61
2022/08/04 08:06:18;;;;;;;6.13;3.25;;;27.30;91.40;;;;;;5035387;28;20662;-60
2022/08/04 08:09:05;;;;;;;4.53;2.95;;;27.50;90.80;;;;;;5034769;28;20055;-59
2022/08/04 08:11:41;;;;;;;19.55;3.67;;;28.10;88.40;;;;;;5019303;28;20989;-59
2022/08/04 08:14:29;;;;;;;5.85;3.30;;;28.80;87.80;;;;;;5034945;28;20414;-58
2022/08/04 08:16:58;;;;;;;4.22;3.08;;;29.40;82.40;;;;;;5035321;28;20040;-60
2022/08/04 08:19:25;;;;;;;4.93;3.00;;;30.00;78.50;;;;;;5034753;28;20103;-60
2022/08/04 08:21:52;;;;;;;9.27;3.53;;;30.50;71.60;;;;;;5033964;28;20572;-61
2022/08/04 08:24:30;;;;;;;3.30;3.00;;;30.90;66.10;;;;;;5034519;28;20106;-61
2022/08/04 08:26:58;;;;;;;3.40;3.03;;;31.30;63.40;;;;;;5035084;28;20045;-61
2022/08/04 08:29:28;;;;;;;5.07;2.88;;;31.50;61.30;;;;;;5033633;28;20044;-61
2022/08/04 08:31:55;;;;;;;6.32;3.00;;;31.70;57.50;;;;;;5034977;28;20040;-57
2022/08/04 08:34:28;;;;;;;5.10;3.15;;;31.90;56.70;;;;;;5017383;28;20040;-63
2022/08/04 08:37:18;;;;;;;2.90;2.70;;;32.10;56.70;;;;;;5027747;28;20746;-59
2022/08/04 08:40:03;;;;;;;6.07;3.35;;;32.30;52.90;;;;;;5018117;28;20072;-59
2022/08/04 08:43:04;;;;;;;3.75;3.10;;;32.40;51.40;;;;;;5019303;28;20424;-59
2022/08/04 08:46:27;;;;;;;3.15;2.85;;;32.40;51.20;;;;;;5021726;28;20079;-59
2022/08/04 08:50:01;;;;;;;9.07;3.08;;;32.40;51.00;;;;;;5021803;28;20076;-60
2022/08/04 08:52:54;;;;;;;3.00;2.70;;;32.60;51.80;;;;;;5017816;28;20049;-60
2022/08/04 08:56:12;;;;;;;3.28;2.97;;;32.70;50.40;;;;;;5021657;28;20497;-60
2022/08/04 08:59:06;;;;;;;8.80;3.30;;;32.90;50.60;;;;;;5020612;28;20048;-63
2022/08/04 09:01:54;;;;;;;5.95;3.15;;;33.10;52.60;;;;;;5019367;28;20897;-62
2022/08/04 09:04:30;;;;;;;6.55;3.20;;;33.40;52.90;;;;;;5021981;28;20042;-61
2022/08/04 09:07:16;;;;;;;4.72;2.55;;;33.60;50.30;;;;;;5021683;28;20488;-61
2022/08/04 09:09:58;;;;;;;2.58;2.30;;;33.80;48.60;;;;;;5026774;28;20687;-64
2022/08/04 09:12:55;;;;;;;2.95;2.72;;;33.90;47.30;;;;;;5040804;28;20036;-65
2022/08/04 09:15:40;;;;;;;3.33;3.03;;;33.90;47.50;;;;;;5020295;28;20076;-63
2022/08/04 09:18:20;;;;;;;3.65;2.72;;;33.90;45.80;;;;;;5020861;28;20040;-64
2022/08/04 09:21:08;;;;;;;7.85;2.92;;;33.80;47.10;;;;;;5021054;28;20046;-64
2022/08/04 09:24:01;;;;;;;3.50;2.72;;;33.80;49.80;;;;;;5019637;28;20049;-64
2022/08/04 09:27:11;;;;;;;5.57;3.05;;;33.90;49.00;;;;;;5031560;28;20087;-65
2022/08/04 09:29:40;;;;;;;2.78;2.58;;;34.10;49.20;;;;;;5039480;28;20037;-65
2022/08/04 09:32:22;;;;;;;3.85;2.63;;;34.30;48.70;;;;;;5042028;28;20644;-64
2022/08/04 09:35:14;;;;;;;4.63;3.00;;;34.50;47.50;;;;;;5026647;28;20052;-63
2022/08/04 09:37:50;;;;;;;9.75;3.08;;;34.40;46.40;;;;;;5037067;28;20075;-63
2022/08/04 09:40:31;;;;;;;6.30;2.67;;;34.40;47.10;;;;;;5023907;28;20044;-63
2022/08/04 09:43:34;;;;;;;4.95;3.13;;;34.40;45.80;;;;;;5025193;28;20495;-64
2022/08/04 09:46:42;;;;;;;3.40;2.78;;;34.50;43.90;;;;;;5024862;28;20924;-64
2022/08/04 09:49:18;;;;;;;3.47;2.78;;;34.50;46.80;;;;;;5025304;28;20038;-64
2022/08/04 09:51:49;;;;;;;2.97;2.47;;;34.50;46.10;;;;;;5024422;28;20049;-63
2022/08/04 09:54:58;;;;;;;4.05;2.67;;;34.60;46.60;;;;;;5023128;28;20080;-66
2022/08/04 09:57:40;;;;;;;7.90;2.90;;;34.70;46.90;;;;;;5023692;28;20551;-65
2022/08/04 10:00:09;;;;;;;2.95;2.65;;;34.80;43.80;;;;;;5040410;28;20524;-64
2022/08/04 10:02:52;;;;;;;6.07;2.65;;;35.00;44.40;;;;;;5024278;28;20447;-63
2022/08/04 10:05:25;;;;;;;3.50;2.60;;;35.00;43.70;;;;;;5025070;28;20041;-64
2022/08/04 10:08:20;;;;;;;2.30;2.10;;;35.00;43.40;;;;;;5024612;28;20523;-65
2022/08/04 10:11:06;;;;;;;6.28;2.80;;;35.20;44.00;;;;;;5038623;28;20626;-64
2022/08/04 10:13:50;;;;;;;4.35;2.40;;;35.30;42.40;;;;;;5029370;28;20055;-65
2022/08/04 10:16:37;;;;;;;3.05;1.88;;;35.40;42.10;;;;;;5044450;28;20075;-64
2022/08/04 10:19:23;;;;;;;2.22;1.95;;;35.30;40.00;;;;;;5043967;28;20041;-63
2022/08/04 10:22:06;;;;;;;2.22;2.00;;;35.30;40.30;;;;;;5043376;28;20755;-63
2022/08/04 10:25:17;;;;;;;5.35;1.92;;;35.40;40.90;;;;;;5043833;28;20049;-64
2022/08/04 10:28:08;;;;;;;3.03;1.90;;;35.50;38.70;;;;;;5024566;28;20052;-63
2022/08/04 10:30:39;;;;;;;5.13;1.95;;;35.30;38.90;;;;;;5023144;28;20053;-66
2022/08/04 10:33:23;;;;;;;4.13;2.20;;;35.30;39.40;;;;;;5024422;28;20049;-65
2022/08/04 10:35:57;;;;;;;5.28;2.50;;;35.40;41.60;;;;;;5031316;28;20056;-64
2022/08/04 10:38:32;;;;;;;9.10;2.25;;;35.50;40.00;;;;;;5038648;28;20099;-65
2022/08/04 10:41:08;;;;;;;3.90;2.20;;;35.60;41.40;;;;;;5021480;28;20132;-67
2022/08/04 10:43:35;;;;;;;3.83;2.28;;;35.80;41.40;;;;;;5023249;28;20152;-67
2022/08/04 10:46:13;;;;;;;3.95;1.88;;;35.90;39.50;;;;;;5024393;28;20045;-66
2022/08/04 10:48:51;;;;;;;5.72;2.45;;;36.10;39.00;;;;;;5023868;28;20238;-64
2022/08/04 10:51:23;;;;;;;2.28;1.95;;;36.20;38.30;;;;;;5024121;28;20042;-63
2022/08/04 10:53:56;;;;;;;4.28;2.33;;;36.20;38.60;;;;;;5030188;28;20052;-64
2022/08/04 10:56:28;;;;;;;2.10;1.80;;;36.30;38.00;;;;;;5044267;28;20052;-64
2022/08/04 10:59:20;;;;;;;2.85;2.00;;;36.30;39.60;;;;;;5042248;28;20060;-66
2022/08/04 11:01:50;;;;;;;5.00;1.98;;;36.50;38.50;;;;;;5043435;28;20492;-66
2022/08/04 11:04:45;;;;;;;4.47;2.08;;;36.50;35.80;;;;;;5043450;28;20574;-63
2022/08/04 11:07:14;;;;;;;3.60;1.60;;;36.30;35.50;;;;;;5042206;28;20045;-68
2022/08/04 11:09:43;;;;;;;2.63;1.73;;;36.00;34.80;;;;;;5043250;28;20045;-64
2022/08/04 11:12:20;;;;;;;1.63;1.30;;;35.80;37.50;;;;;;5043170;28;20045;-64
2022/08/04 11:14:53;;;;;;;1.67;1.08;;;35.80;34.50;;;;;;5042591;28;20485;-65
2022/08/04 11:17:25;;;;;;;3.53;1.30;;;35.70;34.20;;;;;;5043578;28;20122;-64
2022/08/04 11:19:51;;;;;;;1.13;0.90;;;35.70;32.80;;;;;;5043514;28;20048;-66
2022/08/04 11:22:27;;;;;;;0.90;0.90;;;35.80;33.40;;;;;;5043114;28;20041;-66
2022/08/04 11:24:57;;;;;;;7.78;1.10;;;35.90;31.90;;;;;;5042039;28;20044;-63
2022/08/04 11:27:43;;;;;;;1.73;1.35;;;35.90;32.10;;;;;;5042261;28;20049;-63
2022/08/04 11:30:12;;;;;;;1.63;1.17;;;35.60;32.80;;;;;;5042723;28;20057;-65
2022/08/04 11:33:02;;;;;;;1.60;1.20;;;35.40;33.00;;;;;;5042471;28;20040;-64
2022/08/04 11:35:51;;;;;;;4.07;1.63;;;35.30;33.30;;;;;;5042211;28;20146;-65
2022/08/04 11:38:23;;;;;;;1.77;1.33;;;35.40;33.90;;;;;;5042512;28;20040;-63
2022/08/04 11:41:03;;;;;;;1.52;1.42;;;35.60;33.00;;;;;;5025657;28;20049;-66
2022/08/04 11:43:43;;;;;;;1.77;1.13;;;35.50;33.10;;;;;;5022262;28;20037;-65
2022/08/04 11:46:42;;;;;;;1.55;1.45;;;35.60;33.20;;;;;;5023047;28;20030;-64
2022/08/04 11:49:25;;;;;;;2.58;1.45;;;35.50;32.20;;;;;;5022203;28;20037;-66
2022/08/04 11:51:55;;;;;;;2.40;1.35;;;35.50;34.00;;;;;;5021317;28;20057;-64
2022/08/04 11:54:21;;;;;;;7.22;1.30;;;35.60;32.70;;;;;;5034089;28;20178;-66
2022/08/04 11:56:49;;;;;;;6.03;1.50;;;35.70;32.30;;;;;;5025670;28;20041;-63
2022/08/04 11:59:17;;;;;;;1.50;1.30;;;35.50;34.20;;;;;;5036493;28;20053;-65
2022/08/04 12:01:43;;;;;;;1.30;1.20;;;35.40;34.00;;;;;;5042502;28;20627;-64
2022/08/04 12:04:48;;;;;;;2.88;1.10;;;35.50;34.00;;;;;;5042247;28;20098;-66
2022/08/04 12:07:47;;;;;;;1.52;1.30;;;35.60;34.00;;;;;;5042153;28;20751;-64
2022/08/04 12:10:37;;;;;;;5.28;1.48;;;35.70;33.80;;;;;;5040120;28;20047;-63
2022/08/04 12:13:36;;;;;;;2.67;1.60;;;35.80;33.20;;;;;;5040796;28;20076;-63
2022/08/04 12:16:23;;;;;;;2.47;1.63;;;35.80;33.30;;;;;;5042000;28;20041;-64
2022/08/04 12:19:04;;;;;;;1.90;1.63;;;35.80;32.40;;;;;;5042245;28;20059;-65
2022/08/04 12:21:41;;;;;;;4.80;1.40;;;35.90;31.90;;;;;;5039936;28;20029;-64
2022/08/04 12:24:22;;;;;;;2.35;1.20;;;35.90;33.20;;;;;;5039740;28;20052;-64
2022/08/04 12:26:57;;;;;;;1.90;1.77;;;36.00;33.30;;;;;;5038615;28;20138;-64
2022/08/04 12:29:26;;;;;;;2.85;1.58;;;36.00;32.60;;;;;;5041891;28;20045;-64
2022/08/04 12:31:59;;;;;;;5.43;1.70;;;36.00;32.20;;;;;;5041397;28;20782;-63
2022/08/04 12:35:10;;;;;;;2.15;1.38;;;35.90;31.00;;;;;;5042023;28;20049;-64
2022/08/04 12:38:03;;;;;;;1.80;1.30;;;36.00;32.10;;;;;;5037187;28;20057;-65
2022/08/04 12:40:45;;;;;;;2.30;1.23;;;36.10;34.50;;;;;;5037135;28;20543;-65
2022/08/04 12:43:26;;;;;;;1.30;1.20;;;36.40;35.50;;;;;;5020361;28;20045;-64
2022/08/04 12:45:56;;;;;;;3.80;1.80;;;36.70;33.00;;;;;;5022325;28;20045;-65
2022/08/04 12:48:25;;;;;;;3.47;1.52;;;36.90;30.80;;;;;;5004586;28;20045;-65
2022/08/04 12:50:54;;;;;;;3.67;1.70;;;36.80;31.60;;;;;;5021513;28;20045;-64
2022/08/04 12:53:36;;;;;;;1.70;1.60;;;36.70;32.10;;;;;;5029256;28;20044;-64
2022/08/04 12:56:25;;;;;;;3.97;1.60;;;36.60;31.20;;;;;;5061539;28;20052;-64
2022/08/04 12:58:59;;;;;;;1.90;1.30;;;36.60;31.60;;;;;;5062123;28;20148;-63
2022/08/04 13:01:28;;;;;;;1.75;1.50;;;36.50;30.60;;;;;;5061055;28;20533;-64
2022/08/04 13:04:26;;;;;;;4.72;1.70;;;36.50;31.70;;;;;;5060535;28;20114;-63
2022/08/04 13:07:09;;;;;;;3.55;1.27;;;36.60;32.10;;;;;;5061074;28;20059;-65
2022/08/04 13:09:37;;;;;;;3.17;1.65;;;36.80;32.60;;;;;;5057486;28;20072;-65
2022/08/04 13:12:20;;;;;;;5.57;1.60;;;37.00;30.20;;;;;;5040594;28;20052;-63
2022/08/04 13:15:04;;;;;;;1.25;1.13;;;37.10;32.00;;;;;;5039720;28;20052;-63
2022/08/04 13:17:56;;;;;;;1.60;1.30;;;37.20;31.20;;;;;;5040015;28;20131;-63
2022/08/04 13:20:33;;;;;;;2.97;1.38;;;37.20;30.10;;;;;;5041418;28;20845;-64
2022/08/04 13:23:13;;;;;;;3.10;1.70;;;37.30;30.00;;;;;;5040939;28;20592;-65
2022/08/04 13:25:49;;;;;;;1.77;1.50;;;37.40;30.60;;;;;;5040516;28;20056;-63
2022/08/04 13:28:39;;;;;;;1.33;1.25;;;37.60;30.60;;;;;;5039657;28;20045;-65
2022/08/04 13:31:15;;;;;;;4.85;2.33;;;37.60;30.10;;;;;;5040931;28;20710;-65
2022/08/04 13:33:45;;;;;;;4.63;1.67;;;37.60;29.90;;;;;;5040717;28;20053;-64
2022/08/04 13:36:14;;;;;;;3.47;1.75;;;37.60;32.10;;;;;;5041533;28;20462;-63
2022/08/04 13:39:02;;;;;;;3.88;1.40;;;37.60;32.10;;;;;;5020844;28;20049;-63
2022/08/04 13:41:30;;;;;;;1.83;1.40;;;37.70;29.70;;;;;;5023978;28;20064;-65
2022/08/04 13:44:00;;;;;;;1.70;1.50;;;37.80;29.00;;;;;;5022874;28;20048;-64
2022/08/04 13:47:07;;;;;;;2.25;1.30;;;37.90;29.00;;;;;;5020018;28;20107;-64
2022/08/04 13:49:40;;;;;;;1.40;1.30;;;37.90;29.10;;;;;;5038478;28;20056;-65
2022/08/04 13:52:27;;;;;;;1.40;1.30;;;37.80;30.10;;;;;;5040098;28;20049;-66
2022/08/04 13:54:54;;;;;;;1.90;1.35;;;37.80;30.10;;;;;;5039217;28;20079;-61
2022/08/04 13:57:27;;;;;;;1.40;1.27;;;37.80;30.90;;;;;;5039896;28;20041;-64